Time,TemperatureF,DewpointF,PressureIn,WindDirection,WindDirectionDegrees,WindSpeedMPH,WindSpeedGustMPH,Humidity,HourlyPrecipIn,Conditions,Clouds,dailyrainin,SoftwareType,DateUTC
2013-10-18 00:02:00,47.0,26.0,-100.00,SSE,160,4.0,7.0,42,0.00,,,0.00,,2013-10-18 08:02:00,
2013-10-18 00:11:00,47.0,26.0,-100.00,SSE,160,4.0,7.0,42,0.00,,,0.00,,2013-10-18 08:11:00,
2013-10-18 00:21:00,47.0,26.0,-100.00,SSE,155,6.0,11.0,43,0.00,,,0.00,,2013-10-18 08:21:00,
2013-10-18 00:31:00,47.0,26.0,-100.00,SSE,155,6.0,11.0,43,0.00,,,0.00,,2013-10-18 08:31:00,
2013-10-18 00:42:00,47.0,26.0,-100.00,SSE,155,6.0,11.0,43,0.00,,,0.00,,2013-10-18 08:42:00,
2013-10-18 00:52:00,45.0,26.0,-100.00,SSE,150,8.0,13.0,46,0.00,,,0.00,,2013-10-18 08:52:00,
2013-10-18 01:02:00,45.0,26.0,-100.00,SSE,150,8.0,13.0,46,0.00,,,0.00,,2013-10-18 09:02:00,
2013-10-18 01:12:00,45.0,26.0,-100.00,SSE,150,8.0,13.0,46,0.00,,,0.00,,2013-10-18 09:12:00,
2013-10-18 01:21:00,44.0,27.0,-100.00,SE,125,4.0,9.0,52,0.00,,,0.00,,2013-10-18 09:21:00,
2013-10-18 01:33:00,44.0,27.0,-100.00,SE,125,4.0,9.0,52,0.00,,,0.00,,2013-10-18 09:33:00,
2013-10-18 01:43:00,44.0,27.0,-100.00,SE,125,4.0,9.0,52,0.00,,,0.00,,2013-10-18 09:43:00,
2013-10-18 01:53:00,43.0,29.0,-100.00,ESE,120,4.0,12.0,56,0.00,,,0.00,,2013-10-18 09:53:00,
2013-10-18 02:03:00,43.0,29.0,-100.00,ESE,120,4.0,12.0,56,0.00,,,0.00,,2013-10-18 10:03:00,
2013-10-18 02:12:00,43.0,29.0,-100.00,ESE,120,4.0,12.0,56,0.00,,,0.00,,2013-10-18 10:12:00,
2013-10-18 02:23:00,43.0,31.0,-100.00,SE,130,6.0,11.0,61,0.00,,,0.00,,2013-10-18 10:23:00,
2013-10-18 02:33:00,43.0,31.0,-100.00,SE,130,6.0,11.0,61,0.00,,,0.00,,2013-10-18 10:33:00,
2013-10-18 02:43:00,43.0,31.0,-100.00,SE,130,6.0,11.0,61,0.00,,,0.00,,2013-10-18 10:43:00,
2013-10-18 02:53:00,42.0,31.0,-100.00,SE,125,4.0,10.0,64,0.00,,,0.00,,2013-10-18 10:53:00,
2013-10-18 03:02:00,42.0,31.0,-100.00,SE,125,4.0,10.0,64,0.00,,,0.00,,2013-10-18 11:02:00,
2013-10-18 03:12:00,42.0,31.0,-100.00,SE,125,4.0,10.0,64,0.00,,,0.00,,2013-10-18 11:12:00,
2013-10-18 03:22:00,42.0,31.0,-100.00,SE,130,4.0,12.0,64,0.00,,,0.00,,2013-10-18 11:22:00,
2013-10-18 03:33:00,42.0,31.0,-100.00,SE,130,4.0,12.0,64,0.00,,,0.00,,2013-10-18 11:33:00,
2013-10-18 03:42:00,42.0,31.0,-100.00,SE,130,4.0,12.0,64,0.00,,,0.00,,2013-10-18 11:42:00,
2013-10-18 03:52:00,42.0,31.0,-100.00,SE,145,4.0,11.0,63,0.00,,,0.00,,2013-10-18 11:52:00,
2013-10-18 04:02:00,42.0,31.0,-100.00,SE,145,4.0,11.0,63,0.00,,,0.00,,2013-10-18 12:02:00,
2013-10-18 04:12:00,42.0,31.0,-100.00,SE,145,4.0,11.0,63,0.00,,,0.00,,2013-10-18 12:12:00,
2013-10-18 04:21:00,42.0,30.0,-100.00,SE,130,4.0,13.0,61,0.00,,,0.00,,2013-10-18 12:21:00,
2013-10-18 04:32:00,42.0,30.0,-100.00,SE,130,4.0,13.0,61,0.00,,,0.00,,2013-10-18 12:32:00,
2013-10-18 04:42:00,42.0,30.0,-100.00,SE,130,4.0,13.0,61,0.00,,,0.00,,2013-10-18 12:42:00,
2013-10-18 04:52:00,42.0,29.0,-100.00,SE,130,5.0,11.0,60,0.00,,,0.00,,2013-10-18 12:52:00,
2013-10-18 05:01:00,42.0,29.0,-100.00,SE,130,5.0,11.0,60,0.00,,,0.00,,2013-10-18 13:01:00,
2013-10-18 05:11:00,42.0,29.0,-100.00,SE,130,5.0,11.0,60,0.00,,,0.00,,2013-10-18 13:11:00,
2013-10-18 05:21:00,42.0,29.0,-100.00,SE,135,4.0,11.0,59,0.00,,,0.00,,2013-10-18 13:21:00,
2013-10-18 05:32:00,42.0,29.0,-100.00,SE,135,4.0,11.0,59,0.00,,,0.00,,2013-10-18 13:32:00,
2013-10-18 05:42:00,42.0,29.0,-100.00,SE,135,4.0,11.0,59,0.00,,,0.00,,2013-10-18 13:42:00,
2013-10-18 05:52:00,42.0,28.0,-100.00,ESE,120,5.0,12.0,58,0.00,,,0.00,,2013-10-18 13:52:00,
2013-10-18 06:02:00,42.0,28.0,-100.00,ESE,120,5.0,12.0,58,0.00,,,0.00,,2013-10-18 14:02:00,
2013-10-18 06:11:00,42.0,28.0,-100.00,ESE,120,5.0,12.0,58,0.00,,,0.00,,2013-10-18 14:11:00,
2013-10-18 06:21:00,42.0,28.0,-100.00,ENE,60,4.0,12.0,57,0.00,,,0.00,,2013-10-18 14:21:00,
2013-10-18 06:32:00,42.0,28.0,-100.00,ENE,60,4.0,12.0,57,0.00,,,0.00,,2013-10-18 14:32:00,
2013-10-18 06:42:00,42.0,28.0,-100.00,ENE,60,4.0,12.0,57,0.00,,,0.00,,2013-10-18 14:42:00,
2013-10-18 06:52:00,42.0,27.0,-100.00,ESE,105,4.0,11.0,55,0.00,,,0.00,,2013-10-18 14:52:00,
2013-10-18 07:02:00,42.0,27.0,-100.00,ESE,105,4.0,11.0,55,0.00,,,0.00,,2013-10-18 15:02:00,
2013-10-18 07:11:00,42.0,27.0,-100.00,ESE,105,4.0,11.0,55,0.00,,,0.00,,2013-10-18 15:11:00,
2013-10-18 07:22:00,42.0,27.0,-100.00,SSE,155,4.0,10.0,54,0.00,,,0.00,,2013-10-18 15:22:00,
2013-10-18 07:33:00,42.0,27.0,-100.00,SSE,155,4.0,10.0,54,0.00,,,0.00,,2013-10-18 15:33:00,
2013-10-18 07:43:00,42.0,27.0,-100.00,SSE,155,4.0,10.0,54,0.00,,,0.00,,2013-10-18 15:43:00,
2013-10-18 07:54:00,42.0,27.0,-100.00,SE,125,6.0,12.0,53,0.00,,,0.00,,2013-10-18 15:54:00,
2013-10-18 08:04:00,42.0,27.0,-100.00,SE,125,6.0,12.0,53,0.00,,,0.00,,2013-10-18 16:04:00,
2013-10-18 08:12:00,42.0,27.0,-100.00,SE,125,6.0,12.0,53,0.00,,,0.00,,2013-10-18 16:12:00,
2013-10-18 08:24:00,43.0,27.0,-100.00,ESE,110,4.0,14.0,52,0.00,,,0.00,,2013-10-18 16:24:00,
2013-10-18 08:33:00,43.0,27.0,-100.00,ESE,110,4.0,14.0,52,0.00,,,0.00,,2013-10-18 16:33:00,
2013-10-18 08:42:00,43.0,27.0,-100.00,ESE,110,4.0,14.0,52,0.00,,,0.00,,2013-10-18 16:42:00,
2013-10-18 08:53:00,44.0,27.0,-100.00,ESE,115,6.0,14.0,50,0.00,,,0.00,,2013-10-18 16:53:00,
2013-10-18 09:03:00,44.0,27.0,-100.00,ESE,115,6.0,14.0,50,0.00,,,0.00,,2013-10-18 17:03:00,
2013-10-18 09:12:00,44.0,27.0,-100.00,ESE,115,6.0,14.0,50,0.00,,,0.00,,2013-10-18 17:12:00,
2013-10-18 09:22:00,44.0,26.0,-100.00,ESE,110,4.0,11.0,50,0.00,,,0.00,,2013-10-18 17:22:00,
2013-10-18 09:33:00,44.0,26.0,-100.00,ESE,110,4.0,11.0,50,0.00,,,0.00,,2013-10-18 17:33:00,
2013-10-18 09:42:00,44.0,26.0,-100.00,ESE,110,4.0,11.0,50,0.00,,,0.00,,2013-10-18 17:42:00,
2013-10-18 09:52:00,44.0,26.0,-100.00,SE,140,5.0,12.0,49,0.00,,,0.00,,2013-10-18 17:52:00,
2013-10-18 10:02:00,44.0,26.0,-100.00,SE,140,5.0,12.0,49,0.00,,,0.00,,2013-10-18 18:02:00,
2013-10-18 10:12:00,44.0,26.0,-100.00,SE,140,5.0,12.0,49,0.00,,,0.00,,2013-10-18 18:12:00,
2013-10-18 10:21:00,44.0,26.0,-100.00,SE,145,4.0,11.0,49,0.00,,,0.00,,2013-10-18 18:21:00,
2013-10-18 10:32:00,44.0,26.0,-100.00,SE,145,4.0,11.0,49,0.00,,,0.00,,2013-10-18 18:32:00,
2013-10-18 10:42:00,44.0,26.0,-100.00,SE,145,4.0,11.0,49,0.00,,,0.00,,2013-10-18 18:42:00,
2013-10-18 10:52:00,44.0,26.0,-100.00,SE,145,6.0,13.0,50,0.00,,,0.00,,2013-10-18 18:52:00,
2013-10-18 11:01:00,44.0,26.0,-100.00,SE,145,6.0,13.0,50,0.00,,,0.00,,2013-10-18 19:01:00,
2013-10-18 11:12:00,44.0,26.0,-100.00,SE,145,6.0,13.0,50,0.00,,,0.00,,2013-10-18 19:12:00,
2013-10-18 11:21:00,45.0,27.0,-100.00,SSE,165,7.0,14.0,48,0.00,,,0.00,,2013-10-18 19:21:00,
2013-10-18 11:32:00,45.0,27.0,-100.00,SSE,165,7.0,14.0,48,0.00,,,0.00,,2013-10-18 19:32:00,
2013-10-18 11:42:00,45.0,27.0,-100.00,SSE,165,7.0,14.0,48,0.00,,,0.00,,2013-10-18 19:42:00,
2013-10-18 11:52:00,44.0,27.0,-100.00,SE,145,9.0,14.0,50,0.00,,,0.00,,2013-10-18 19:52:00,
2013-10-18 12:02:00,44.0,27.0,-100.00,SE,145,9.0,14.0,50,0.00,,,0.00,,2013-10-18 20:02:00,
2013-10-18 12:11:00,44.0,27.0,-100.00,SE,145,9.0,14.0,50,0.00,,,0.00,,2013-10-18 20:11:00,
2013-10-18 12:22:00,46.0,28.0,-100.00,SSE,160,11.0,17.0,48,0.00,,,0.00,,2013-10-18 20:22:00,
2013-10-18 12:32:00,46.0,28.0,-100.00,SSE,160,11.0,17.0,48,0.00,,,0.00,,2013-10-18 20:32:00,
2013-10-18 12:42:00,46.0,28.0,-100.00,SSE,160,11.0,17.0,48,0.00,,,0.00,,2013-10-18 20:42:00,
2013-10-18 12:52:00,47.0,28.0,-100.00,SSE,165,9.0,16.0,47,0.00,,,0.00,,2013-10-18 20:52:00,
2013-10-18 13:02:00,47.0,28.0,-100.00,SSE,165,9.0,16.0,47,0.00,,,0.00,,2013-10-18 21:02:00,
2013-10-18 13:11:00,47.0,28.0,-100.00,SSE,165,9.0,16.0,47,0.00,,,0.00,,2013-10-18 21:11:00,
2013-10-18 13:22:00,47.0,28.0,-100.00,SSE,165,9.0,15.0,47,0.00,,,0.00,,2013-10-18 21:22:00,
2013-10-18 13:34:00,47.0,28.0,-100.00,SSE,165,9.0,15.0,47,0.00,,,0.00,,2013-10-18 21:34:00,
2013-10-18 13:44:00,47.0,28.0,-100.00,SSE,165,9.0,15.0,47,0.00,,,0.00,,2013-10-18 21:44:00,
2013-10-18 13:54:00,47.0,28.0,-100.00,South,185,5.0,12.0,48,0.00,,,0.00,,2013-10-18 21:54:00,
2013-10-18 14:04:00,47.0,28.0,-100.00,South,185,5.0,12.0,48,0.00,,,0.00,,2013-10-18 22:04:00,
2013-10-18 14:13:00,47.0,28.0,-100.00,South,185,5.0,12.0,48,0.00,,,0.00,,2013-10-18 22:13:00,
2013-10-18 14:24:00,50.0,30.0,-100.00,SSW,195,6.0,12.0,45,0.00,,,0.00,,2013-10-18 22:24:00,
2013-10-18 14:33:00,50.0,30.0,-100.00,SSW,195,6.0,12.0,45,0.00,,,0.00,,2013-10-18 22:33:00,
2013-10-18 14:43:00,50.0,30.0,-100.00,SSW,195,6.0,12.0,45,0.00,,,0.00,,2013-10-18 22:43:00,
2013-10-18 14:54:00,50.0,29.0,-100.00,South,185,6.0,17.0,45,0.00,,,0.00,,2013-10-18 22:54:00,
2013-10-18 15:03:00,50.0,29.0,-100.00,South,185,6.0,17.0,45,0.00,,,0.00,,2013-10-18 23:03:00,
2013-10-18 15:12:00,50.0,29.0,-100.00,South,185,6.0,17.0,45,0.00,,,0.00,,2013-10-18 23:12:00,
2013-10-18 15:23:00,50.0,30.0,-100.00,South,190,4.0,12.0,44,0.00,,,0.00,,2013-10-18 23:23:00,
2013-10-18 15:33:00,50.0,30.0,-100.00,South,190,4.0,12.0,44,0.00,,,0.00,,2013-10-18 23:33:00,
2013-10-18 15:42:00,50.0,30.0,-100.00,South,190,4.0,12.0,44,0.00,,,0.00,,2013-10-18 23:42:00,
2013-10-18 15:53:00,51.0,29.0,-100.00,South,190,4.0,12.0,43,0.00,,,0.00,,2013-10-18 23:53:00,
2013-10-18 16:02:00,51.0,29.0,-100.00,South,190,4.0,12.0,43,0.00,,,0.00,,2013-10-19 00:02:00,
2013-10-18 16:11:00,51.0,29.0,-100.00,South,190,4.0,12.0,43,0.00,,,0.00,,2013-10-19 00:11:00,
2013-10-18 16:21:00,50.0,28.0,-100.00,South,180,4.0,12.0,42,0.00,,,0.00,,2013-10-19 00:21:00,
2013-10-18 16:32:00,50.0,28.0,-100.00,South,180,4.0,12.0,42,0.00,,,0.00,,2013-10-19 00:32:00,
2013-10-18 16:42:00,50.0,28.0,-100.00,South,180,4.0,12.0,42,0.00,,,0.00,,2013-10-19 00:42:00,
2013-10-18 16:52:00,49.0,26.0,-100.00,South,190,6.0,17.0,40,0.00,,,0.00,,2013-10-19 00:52:00,
2013-10-18 17:02:00,49.0,26.0,-100.00,South,190,6.0,17.0,40,0.00,,,0.00,,2013-10-19 01:02:00,
2013-10-18 17:11:00,49.0,26.0,-100.00,South,190,6.0,17.0,40,0.00,,,0.00,,2013-10-19 01:11:00,
2013-10-18 17:21:00,49.0,26.0,-100.00,South,175,6.0,13.0,40,0.00,,,0.00,,2013-10-19 01:21:00,
2013-10-18 17:32:00,49.0,26.0,-100.00,South,175,6.0,13.0,40,0.00,,,0.00,,2013-10-19 01:32:00,
2013-10-18 17:42:00,49.0,26.0,-100.00,South,175,6.0,13.0,40,0.00,,,0.00,,2013-10-19 01:42:00,
2013-10-18 17:52:00,48.0,24.0,-100.00,SSW,195,5.0,16.0,39,0.00,,,0.00,,2013-10-19 01:52:00,
2013-10-18 18:02:00,48.0,24.0,-100.00,SSW,195,5.0,16.0,39,0.00,,,0.00,,2013-10-19 02:02:00,
2013-10-18 18:12:00,48.0,24.0,-100.00,SSW,195,5.0,16.0,39,0.00,,,0.00,,2013-10-19 02:12:00,
2013-10-18 18:21:00,46.0,24.0,-100.00,South,170,7.0,16.0,40,0.00,,,0.00,,2013-10-19 02:21:00,
2013-10-18 18:32:00,46.0,24.0,-100.00,South,170,7.0,16.0,40,0.00,,,0.00,,2013-10-19 02:32:00,
2013-10-18 18:42:00,46.0,24.0,-100.00,South,170,7.0,16.0,40,0.00,,,0.00,,2013-10-19 02:42:00,
2013-10-18 18:52:00,44.0,23.0,-100.00,South,175,6.0,11.0,42,0.00,,,0.00,,2013-10-19 02:52:00,
2013-10-18 19:02:00,44.0,23.0,-100.00,South,175,6.0,11.0,42,0.00,,,0.00,,2013-10-19 03:02:00,
2013-10-18 19:12:00,44.0,23.0,-100.00,South,175,6.0,11.0,42,0.00,,,0.00,,2013-10-19 03:12:00,
2013-10-18 19:22:00,44.0,22.0,-100.00,South,190,8.0,16.0,41,0.00,,,0.00,,2013-10-19 03:22:00,
2013-10-18 19:34:00,44.0,22.0,-100.00,South,190,8.0,16.0,41,0.00,,,0.00,,2013-10-19 03:34:00,
2013-10-18 19:44:00,44.0,22.0,-100.00,South,190,8.0,16.0,41,0.00,,,0.00,,2013-10-19 03:44:00,
2013-10-18 19:54:00,44.0,20.0,-100.00,South,175,8.0,14.0,38,0.00,,,0.00,,2013-10-19 03:54:00,
2013-10-18 20:05:00,44.0,20.0,-100.00,South,175,8.0,14.0,38,0.00,,,0.00,,2013-10-19 04:05:00,
2013-10-18 20:13:00,44.0,20.0,-100.00,South,175,8.0,14.0,38,0.00,,,0.00,,2013-10-19 04:13:00,
2013-10-18 20:24:00,44.0,19.0,-100.00,South,175,8.0,15.0,37,0.00,,,0.00,,2013-10-19 04:24:00,
2013-10-18 20:34:00,44.0,19.0,-100.00,South,175,8.0,15.0,37,0.00,,,0.00,,2013-10-19 04:34:00,
2013-10-18 20:43:00,44.0,19.0,-100.00,South,175,8.0,15.0,37,0.00,,,0.00,,2013-10-19 04:43:00,
2013-10-18 20:54:00,43.0,20.0,-100.00,South,175,10.0,19.0,38,0.00,,,0.00,,2013-10-19 04:54:00,
2013-10-18 21:04:00,43.0,20.0,-100.00,South,175,10.0,19.0,38,0.00,,,0.00,,2013-10-19 05:04:00,
2013-10-18 21:13:00,43.0,20.0,-100.00,South,175,10.0,19.0,38,0.00,,,0.00,,2013-10-19 05:13:00,
2013-10-18 21:22:00,43.0,19.0,-100.00,SSW,195,8.0,13.0,38,0.00,,,0.00,,2013-10-19 05:22:00,
2013-10-18 21:34:00,43.0,19.0,-100.00,SSW,195,8.0,13.0,38,0.00,,,0.00,,2013-10-19 05:34:00,
2013-10-18 21:42:00,43.0,19.0,-100.00,SSW,195,8.0,13.0,38,0.00,,,0.00,,2013-10-19 05:42:00,
2013-10-18 21:52:00,42.0,20.0,-100.00,SSE,165,11.0,20.0,39,0.00,,,0.00,,2013-10-19 05:52:00,
2013-10-18 22:02:00,42.0,20.0,-100.00,SSE,165,11.0,20.0,39,0.00,,,0.00,,2013-10-19 06:02:00,
2013-10-18 22:12:00,42.0,20.0,-100.00,SSE,165,11.0,20.0,39,0.00,,,0.00,,2013-10-19 06:12:00,
2013-10-18 22:22:00,42.0,20.0,-100.00,South,175,7.0,15.0,39,0.00,,,0.00,,2013-10-19 06:22:00,
2013-10-18 22:32:00,42.0,20.0,-100.00,South,175,7.0,15.0,39,0.00,,,0.00,,2013-10-19 06:32:00,
2013-10-18 22:42:00,42.0,20.0,-100.00,South,175,7.0,15.0,39,0.00,,,0.00,,2013-10-19 06:42:00,
2013-10-18 22:52:00,42.0,19.0,-100.00,SSE,160,9.0,12.0,39,0.00,,,0.00,,2013-10-19 06:52:00,
2013-10-18 23:02:00,42.0,19.0,-100.00,SSE,160,9.0,12.0,39,0.00,,,0.00,,2013-10-19 07:02:00,
2013-10-18 23:11:00,42.0,19.0,-100.00,SSE,160,9.0,12.0,39,0.00,,,0.00,,2013-10-19 07:11:00,
2013-10-18 23:21:00,42.0,19.0,-100.00,SSE,165,7.0,16.0,39,0.00,,,0.00,,2013-10-19 07:21:00,
2013-10-18 23:32:00,42.0,19.0,-100.00,SSE,165,7.0,16.0,39,0.00,,,0.00,,2013-10-19 07:32:00,
2013-10-18 23:42:00,42.0,19.0,-100.00,SSE,165,7.0,16.0,39,0.00,,,0.00,,2013-10-19 07:42:00,